sensor_id;sensor_type;location;lat;lon;timestamp;P1;durP1;ratioP1;P2;durP2;ratioP2
73168;SDS011;61379;59.732;30.468;2022-09-01T00:01:39;7.07;;;6.57;;
73168;SDS011;61379;59.732;30.468;2022-09-01T00:04:07;7.20;;;6.70;;
73168;SDS011;61379;59.732;30.468;2022-09-01T00:06:35;7.07;;;6.65;;
73168;SDS011;61379;59.732;30.468;2022-09-01T00:09:05;7.80;;;7.20;;
73168;SDS011;61379;59.732;30.468;2022-09-01T00:11:32;7.57;;;6.97;;
73168;SDS011;61379;59.732;30.468;2022-09-01T00:13:59;7.85;;;7.13;;
73168;SDS011;61379;59.732;30.468;2022-09-01T00:16:27;7.00;;;6.60;;
73168;SDS011;61379;59.732;30.468;2022-09-01T00:18:54;7.65;;;7.15;;
73168;SDS011;61379;59.732;30.468;2022-09-01T00:21:22;7.32;;;6.82;;
73168;SDS011;61379;59.732;30.468;2022-09-01T00:23:49;7.00;;;6.50;;
73168;SDS011;61379;59.732;30.468;2022-09-01T00:26:17;6.72;;;6.32;;
73168;SDS011;61379;59.732;30.468;2022-09-01T00:28:44;6.80;;;6.40;;
73168;SDS011;61379;59.732;30.468;2022-09-01T00:31:11;7.43;;;6.75;;
73168;SDS011;61379;59.732;30.468;2022-09-01T00:33:39;6.72;;;6.32;;
73168;SDS011;61379;59.732;30.468;2022-09-01T00:36:06;6.28;;;5.88;;
73168;SDS011;61379;59.732;30.468;2022-09-01T00:38:33;7.13;;;6.65;;
73168;SDS011;61379;59.732;30.468;2022-09-01T00:41:00;6.93;;;6.43;;
73168;SDS011;61379;59.732;30.468;2022-09-01T00:43:36;6.95;;;6.55;;
73168;SDS011;61379;59.732;30.468;2022-09-01T00:46:03;7.05;;;6.65;;
73168;SDS011;61379;59.732;30.468;2022-09-01T00:48:30;7.22;;;6.82;;
73168;SDS011;61379;59.732;30.468;2022-09-01T00:50:57;7.32;;;6.82;;
73168;SDS011;61379;59.732;30.468;2022-09-01T00:53:23;6.90;;;6.50;;
73168;SDS011;61379;59.732;30.468;2022-09-01T00:55:50;6.93;;;6.53;;
73168;SDS011;61379;59.732;30.468;2022-09-01T00:58:17;7.05;;;6.55;;
73168;SDS011;61379;59.732;30.468;2022-09-01T01:00:46;6.50;;;6.10;;
73168;SDS011;61379;59.732;30.468;2022-09-01T01:03:14;7.53;;;7.03;;
73168;SDS011;61379;59.732;30.468;2022-09-01T01:05:41;6.93;;;6.43;;
73168;SDS011;61379;59.732;30.468;2022-09-01T01:08:13;6.50;;;6.10;;
73168;SDS011;61379;59.732;30.468;2022-09-01T01:10:43;6.70;;;6.30;;
73168;SDS011;61379;59.732;30.468;2022-09-01T01:13:10;7.43;;;6.82;;
73168;SDS011;61379;59.732;30.468;2022-09-01T01:15:38;7.22;;;6.72;;
73168;SDS011;61379;59.732;30.468;2022-09-01T01:20:35;7.07;;;6.68;;
73168;SDS011;61379;59.732;30.468;2022-09-01T01:23:23;6.90;;;6.40;;
73168;SDS011;61379;59.732;30.468;2022-09-01T01:25:53;6.72;;;6.32;;
73168;SDS011;61379;59.732;30.468;2022-09-01T01:28:21;7.10;;;6.70;;
73168;SDS011;61379;59.732;30.468;2022-09-01T01:30:52;7.72;;;7.13;;
73168;SDS011;61379;59.732;30.468;2022-09-01T01:33:19;7.53;;;6.95;;
73168;SDS011;61379;59.732;30.468;2022-09-01T01:35:47;7.55;;;7.07;;
73168;SDS011;61379;59.732;30.468;2022-09-01T01:38:16;6.82;;;6.32;;
73168;SDS011;61379;59.732;30.468;2022-09-01T01:40:45;6.93;;;6.53;;
73168;SDS011;61379;59.732;30.468;2022-09-01T01:43:13;6.82;;;6.43;;
73168;SDS011;61379;59.732;30.468;2022-09-01T01:45:47;7.43;;;6.93;;
73168;SDS011;61379;59.732;30.468;2022-09-01T01:48:16;7.00;;;6.50;;
73168;SDS011;61379;59.732;30.468;2022-09-01T01:50:48;7.05;;;6.53;;
73168;SDS011;61379;59.732;30.468;2022-09-01T01:53:15;6.95;;;6.45;;
73168;SDS011;61379;59.732;30.468;2022-09-01T01:55:43;6.45;;;6.05;;
73168;SDS011;61379;59.732;30.468;2022-09-01T01:58:10;7.20;;;6.70;;
73168;SDS011;61379;59.732;30.468;2022-09-01T02:00:41;7.03;;;6.30;;
73168;SDS011;61379;59.732;30.468;2022-09-01T02:03:09;6.70;;;6.20;;
73168;SDS011;61379;59.732;30.468;2022-09-01T02:05:37;7.07;;;6.68;;
73168;SDS011;61379;59.732;30.468;2022-09-01T02:08:05;7.10;;;6.65;;
73168;SDS011;61379;59.732;30.468;2022-09-01T02:10:33;7.70;;;7.20;;
73168;SDS011;61379;59.732;30.468;2022-09-01T02:13:00;8.05;;;7.43;;
73168;SDS011;61379;59.732;30.468;2022-09-01T02:15:30;7.43;;;7.00;;
73168;SDS011;61379;59.732;30.468;2022-09-01T02:18:04;7.55;;;7.15;;
73168;SDS011;61379;59.732;30.468;2022-09-01T02:20:31;8.10;;;7.35;;
73168;SDS011;61379;59.732;30.468;2022-09-01T02:22:58;7.18;;;6.68;;
73168;SDS011;61379;59.732;30.468;2022-09-01T02:25:25;7.55;;;7.13;;
73168;SDS011;61379;59.732;30.468;2022-09-01T02:27:52;7.70;;;7.10;;
73168;SDS011;61379;59.732;30.468;2022-09-01T02:30:19;8.35;;;7.78;;
73168;SDS011;61379;59.732;30.468;2022-09-01T02:32:46;7.70;;;7.20;;
73168;SDS011;61379;59.732;30.468;2022-09-01T02:35:14;7.25;;;6.85;;
73168;SDS011;61379;59.732;30.468;2022-09-01T02:37:42;7.82;;;7.40;;
73168;SDS011;61379;59.732;30.468;2022-09-01T02:40:13;7.82;;;7.32;;
73168;SDS011;61379;59.732;30.468;2022-09-01T02:42:40;7.97;;;7.47;;
73168;SDS011;61379;59.732;30.468;2022-09-01T02:45:07;8.10;;;7.50;;
73168;SDS011;61379;59.732;30.468;2022-09-01T02:47:36;16.90;;;13.00;;
73168;SDS011;61379;59.732;30.468;2022-09-01T02:50:06;7.55;;;7.15;;
73168;SDS011;61379;59.732;30.468;2022-09-01T02:52:39;7.88;;;7.28;;
73168;SDS011;61379;59.732;30.468;2022-09-01T02:55:06;7.32;;;6.85;;
73168;SDS011;61379;59.732;30.468;2022-09-01T02:57:33;8.05;;;7.55;;
73168;SDS011;61379;59.732;30.468;2022-09-01T03:00:00;7.75;;;7.25;;
73168;SDS011;61379;59.732;30.468;2022-09-01T03:02:30;7.85;;;7.28;;
73168;SDS011;61379;59.732;30.468;2022-09-01T03:04:58;7.22;;;6.82;;
73168;SDS011;61379;59.732;30.468;2022-09-01T03:07:26;7.65;;;7.15;;
73168;SDS011;61379;59.732;30.468;2022-09-01T03:09:55;6.95;;;6.55;;
73168;SDS011;61379;59.732;30.468;2022-09-01T03:12:21;8.10;;;7.60;;
73168;SDS011;61379;59.732;30.468;2022-09-01T03:14:49;8.18;;;7.57;;
73168;SDS011;61379;59.732;30.468;2022-09-01T03:17:15;7.38;;;6.90;;
73168;SDS011;61379;59.732;30.468;2022-09-01T03:19:42;7.70;;;7.20;;
73168;SDS011;61379;59.732;30.468;2022-09-01T03:22:11;9.10;;;8.27;;
73168;SDS011;61379;59.732;30.468;2022-09-01T03:24:37;8.15;;;7.65;;
73168;SDS011;61379;59.732;30.468;2022-09-01T03:27:06;7.68;;;7.18;;
73168;SDS011;61379;59.732;30.468;2022-09-01T03:29:35;8.35;;;7.65;;
73168;SDS011;61379;59.732;30.468;2022-09-01T03:32:02;7.70;;;7.03;;
73168;SDS011;61379;59.732;30.468;2022-09-01T03:34:29;8.50;;;7.63;;
73168;SDS011;61379;59.732;30.468;2022-09-01T03:36:58;8.02;;;7.53;;
73168;SDS011;61379;59.732;30.468;2022-09-01T03:39:26;8.20;;;7.70;;
73168;SDS011;61379;59.732;30.468;2022-09-01T03:41:53;8.32;;;7.72;;
73168;SDS011;61379;59.732;30.468;2022-09-01T03:44:23;8.90;;;8.40;;
73168;SDS011;61379;59.732;30.468;2022-09-01T03:46:50;8.80;;;8.30;;
73168;SDS011;61379;59.732;30.468;2022-09-01T03:49:17;8.63;;;8.13;;
73168;SDS011;61379;59.732;30.468;2022-09-01T03:51:51;8.70;;;7.95;;
73168;SDS011;61379;59.732;30.468;2022-09-01T03:54:18;7.38;;;6.97;;
73168;SDS011;61379;59.732;30.468;2022-09-01T03:56:47;9.07;;;8.45;;
73168;SDS011;61379;59.732;30.468;2022-09-01T03:59:15;8.68;;;8.02;;
73168;SDS011;61379;59.732;30.468;2022-09-01T04:01:43;8.60;;;8.07;;
73168;SDS011;61379;59.732;30.468;2022-09-01T04:04:10;8.82;;;8.32;;
73168;SDS011;61379;59.732;30.468;2022-09-01T04:06:38;9.25;;;8.65;;
73168;SDS011;61379;59.732;30.468;2022-09-01T04:09:05;8.43;;;7.97;;
73168;SDS011;61379;59.732;30.468;2022-09-01T04:11:32;8.95;;;8.38;;
73168;SDS011;61379;59.732;30.468;2022-09-01T04:13:59;9.25;;;8.65;;
73168;SDS011;61379;59.732;30.468;2022-09-01T04:16:26;8.23;;;7.72;;
73168;SDS011;61379;59.732;30.468;2022-09-01T04:19:12;9.05;;;8.35;;
73168;SDS011;61379;59.732;30.468;2022-09-01T04:21:45;8.13;;;7.55;;
73168;SDS011;61379;59.732;30.468;2022-09-01T04:24:12;8.48;;;7.97;;
73168;SDS011;61379;59.732;30.468;2022-09-01T04:26:39;9.05;;;8.45;;
73168;SDS011;61379;59.732;30.468;2022-09-01T04:29:06;8.55;;;8.05;;
73168;SDS011;61379;59.732;30.468;2022-09-01T04:31:36;9.00;;;8.50;;
73168;SDS011;61379;59.732;30.468;2022-09-01T04:34:04;8.05;;;7.55;;
73168;SDS011;61379;59.732;30.468;2022-09-01T04:36:38;8.90;;;8.18;;
73168;SDS011;61379;59.732;30.468;2022-09-01T04:39:06;8.90;;;8.30;;
73168;SDS011;61379;59.732;30.468;2022-09-01T04:41:34;8.43;;;7.82;;
73168;SDS011;61379;59.732;30.468;2022-09-01T04:44:01;8.73;;;8.23;;
73168;SDS011;61379;59.732;30.468;2022-09-01T04:46:29;8.77;;;8.13;;
73168;SDS011;61379;59.732;30.468;2022-09-01T04:48:59;8.10;;;7.55;;
73168;SDS011;61379;59.732;30.468;2022-09-01T04:51:28;8.45;;;7.95;;
73168;SDS011;61379;59.732;30.468;2022-09-01T04:53:56;8.85;;;8.25;;
73168;SDS011;61379;59.732;30.468;2022-09-01T04:56:24;8.52;;;8.02;;
73168;SDS011;61379;59.732;30.468;2022-09-01T04:58:52;8.77;;;8.27;;
73168;SDS011;61379;59.732;30.468;2022-09-01T05:01:23;8.23;;;7.72;;
73168;SDS011;61379;59.732;30.468;2022-09-01T05:03:50;8.15;;;7.65;;
73168;SDS011;61379;59.732;30.468;2022-09-01T05:06:21;8.27;;;7.68;;
73168;SDS011;61379;59.732;30.468;2022-09-01T05:08:48;7.72;;;7.32;;
73168;SDS011;61379;59.732;30.468;2022-09-01T05:11:17;8.32;;;7.82;;
73168;SDS011;61379;59.732;30.468;2022-09-01T05:13:45;8.65;;;8.15;;
73168;SDS011;61379;59.732;30.468;2022-09-01T05:16:13;8.25;;;7.65;;
73168;SDS011;61379;59.732;30.468;2022-09-01T05:18:41;8.13;;;7.65;;
73168;SDS011;61379;59.732;30.468;2022-09-01T05:21:09;8.27;;;7.78;;
73168;SDS011;61379;59.732;30.468;2022-09-01T05:23:36;7.93;;;7.43;;
73168;SDS011;61379;59.732;30.468;2022-09-01T05:26:04;8.73;;;8.23;;
73168;SDS011;61379;59.732;30.468;2022-09-01T05:28:40;8.18;;;7.68;;
73168;SDS011;61379;59.732;30.468;2022-09-01T05:31:07;7.38;;;6.78;;
73168;SDS011;61379;59.732;30.468;2022-09-01T05:33:34;7.72;;;7.22;;
73168;SDS011;61379;59.732;30.468;2022-09-01T05:36:01;7.45;;;6.95;;
73168;SDS011;61379;59.732;30.468;2022-09-01T05:38:32;7.65;;;7.05;;
73168;SDS011;61379;59.732;30.468;2022-09-01T05:41:00;7.50;;;7.00;;
73168;SDS011;61379;59.732;30.468;2022-09-01T05:43:28;7.47;;;7.05;;
73168;SDS011;61379;59.732;30.468;2022-09-01T05:45:56;8.43;;;7.93;;
73168;SDS011;61379;59.732;30.468;2022-09-01T05:48:25;7.63;;;7.13;;
73168;SDS011;61379;59.732;30.468;2022-09-01T05:50:56;7.28;;;6.88;;
73168;SDS011;61379;59.732;30.468;2022-09-01T05:53:24;7.97;;;7.47;;
73168;SDS011;61379;59.732;30.468;2022-09-01T05:55:51;7.78;;;7.35;;
73168;SDS011;61379;59.732;30.468;2022-09-01T05:58:21;8.63;;;7.88;;
73168;SDS011;61379;59.732;30.468;2022-09-01T06:00:49;6.80;;;6.40;;
73168;SDS011;61379;59.732;30.468;2022-09-01T06:03:19;7.30;;;6.80;;
73168;SDS011;61379;59.732;30.468;2022-09-01T06:05:46;8.95;;;8.20;;
73168;SDS011;61379;59.732;30.468;2022-09-01T06:08:17;8.45;;;7.72;;
73168;SDS011;61379;59.732;30.468;2022-09-01T06:10:44;6.85;;;6.43;;
73168;SDS011;61379;59.732;30.468;2022-09-01T06:13:11;7.40;;;6.90;;
73168;SDS011;61379;59.732;30.468;2022-09-01T06:15:40;7.70;;;7.22;;
73168;SDS011;61379;59.732;30.468;2022-09-01T06:18:07;8.30;;;7.80;;
73168;SDS011;61379;59.732;30.468;2022-09-01T06:20:39;7.97;;;7.45;;
73168;SDS011;61379;59.732;30.468;2022-09-01T06:23:07;7.50;;;7.10;;
73168;SDS011;61379;59.732;30.468;2022-09-01T06:25:35;8.32;;;7.65;;
73168;SDS011;61379;59.732;30.468;2022-09-01T06:28:02;8.02;;;7.43;;
73168;SDS011;61379;59.732;30.468;2022-09-01T06:30:29;8.32;;;7.82;;
73168;SDS011;61379;59.732;30.468;2022-09-01T06:33:01;7.70;;;7.00;;
73168;SDS011;61379;59.732;30.468;2022-09-01T06:37:58;7.75;;;7.15;;
73168;SDS011;61379;59.732;30.468;2022-09-01T06:40:26;6.43;;;6.03;;
73168;SDS011;61379;59.732;30.468;2022-09-01T06:42:52;7.93;;;7.32;;
73168;SDS011;61379;59.732;30.468;2022-09-01T06:45:20;7.75;;;7.25;;
73168;SDS011;61379;59.732;30.468;2022-09-01T06:47:47;7.82;;;7.22;;
73168;SDS011;61379;59.732;30.468;2022-09-01T06:50:16;8.15;;;7.40;;
73168;SDS011;61379;59.732;30.468;2022-09-01T06:52:44;7.30;;;6.80;;
73168;SDS011;61379;59.732;30.468;2022-09-01T06:55:13;7.13;;;6.72;;
73168;SDS011;61379;59.732;30.468;2022-09-01T06:57:40;7.38;;;6.72;;
73168;SDS011;61379;59.732;30.468;2022-09-01T07:00:13;7.93;;;7.43;;
73168;SDS011;61379;59.732;30.468;2022-09-01T07:02:42;7.25;;;6.65;;
73168;SDS011;61379;59.732;30.468;2022-09-01T07:05:09;7.53;;;6.97;;
73168;SDS011;61379;59.732;30.468;2022-09-01T07:07:36;6.40;;;6.00;;
73168;SDS011;61379;59.732;30.468;2022-09-01T07:10:03;6.72;;;6.13;;
73168;SDS011;61379;59.732;30.468;2022-09-01T07:12:32;7.57;;;7.07;;
73168;SDS011;61379;59.732;30.468;2022-09-01T07:14:59;8.35;;;7.75;;
73168;SDS011;61379;59.732;30.468;2022-09-01T07:17:26;7.03;;;6.57;;
73168;SDS011;61379;59.732;30.468;2022-09-01T07:19:54;7.32;;;6.82;;
73168;SDS011;61379;59.732;30.468;2022-09-01T07:22:21;7.45;;;6.95;;
73168;SDS011;61379;59.732;30.468;2022-09-01T07:24:48;6.70;;;6.18;;
73168;SDS011;61379;59.732;30.468;2022-09-01T07:27:21;7.10;;;6.50;;
73168;SDS011;61379;59.732;30.468;2022-09-01T07:29:53;7.07;;;6.57;;
73168;SDS011;61379;59.732;30.468;2022-09-01T07:32:22;7.80;;;7.15;;
73168;SDS011;61379;59.732;30.468;2022-09-01T07:34:49;7.22;;;6.60;;
73168;SDS011;61379;59.732;30.468;2022-09-01T07:37:16;7.00;;;6.50;;
73168;SDS011;61379;59.732;30.468;2022-09-01T07:39:47;6.93;;;6.38;;
73168;SDS011;61379;59.732;30.468;2022-09-01T07:42:15;7.15;;;6.55;;
73168;SDS011;61379;59.732;30.468;2022-09-01T07:44:42;6.13;;;5.72;;
73168;SDS011;61379;59.732;30.468;2022-09-01T07:47:10;8.35;;;5.82;;
73168;SDS011;61379;59.732;30.468;2022-09-01T07:49:39;6.93;;;6.25;;
73168;SDS011;61379;59.732;30.468;2022-09-01T07:52:06;7.07;;;6.05;;
73168;SDS011;61379;59.732;30.468;2022-09-01T07:54:33;7.43;;;6.55;;
73168;SDS011;61379;59.732;30.468;2022-09-01T07:57:01;6.30;;;5.90;;
73168;SDS011;61379;59.732;30.468;2022-09-01T07:59:28;6.45;;;5.90;;
73168;SDS011;61379;59.732;30.468;2022-09-01T08:01:55;6.63;;;6.13;;
73168;SDS011;61379;59.732;30.468;2022-09-01T08:04:23;7.20;;;6.50;;
73168;SDS011;61379;59.732;30.468;2022-09-01T08:06:50;6.95;;;6.35;;
73168;SDS011;61379;59.732;30.468;2022-09-01T08:09:17;7.43;;;6.15;;
73168;SDS011;61379;59.732;30.468;2022-09-01T08:11:44;6.97;;;6.38;;
73168;SDS011;61379;59.732;30.468;2022-09-01T08:14:11;6.38;;;5.78;;
73168;SDS011;61379;59.732;30.468;2022-09-01T08:16:37;6.30;;;5.90;;
73168;SDS011;61379;59.732;30.468;2022-09-01T08:19:04;7.15;;;6.53;;
73168;SDS011;61379;59.732;30.468;2022-09-01T08:21:32;7.32;;;6.25;;
73168;SDS011;61379;59.732;30.468;2022-09-01T08:23:59;6.63;;;6.03;;
73168;SDS011;61379;59.732;30.468;2022-09-01T08:26:26;6.30;;;5.80;;
73168;SDS011;61379;59.732;30.468;2022-09-01T08:28:53;6.88;;;6.35;;
73168;SDS011;61379;59.732;30.468;2022-09-01T08:31:20;6.22;;;5.78;;
73168;SDS011;61379;59.732;30.468;2022-09-01T08:33:48;6.45;;;6.03;;
73168;SDS011;61379;59.732;30.468;2022-09-01T08:36:15;7.15;;;6.55;;
73168;SDS011;61379;59.732;30.468;2022-09-01T08:38:44;6.45;;;6.05;;
73168;SDS011;61379;59.732;30.468;2022-09-01T08:41:15;8.18;;;5.78;;
73168;SDS011;61379;59.732;30.468;2022-09-01T08:43:45;7.38;;;6.80;;
73168;SDS011;61379;59.732;30.468;2022-09-01T08:46:16;6.05;;;5.65;;
73168;SDS011;61379;59.732;30.468;2022-09-01T08:48:45;6.65;;;6.15;;
73168;SDS011;61379;59.732;30.468;2022-09-01T08:51:14;6.43;;;6.03;;
73168;SDS011;61379;59.732;30.468;2022-09-01T08:53:42;6.18;;;5.78;;
73168;SDS011;61379;59.732;30.468;2022-09-01T08:56:11;6.45;;;5.93;;
73168;SDS011;61379;59.732;30.468;2022-09-01T08:58:38;6.10;;;5.60;;
73168;SDS011;61379;59.732;30.468;2022-09-01T09:01:07;6.63;;;6.13;;
73168;SDS011;61379;59.732;30.468;2022-09-01T09:03:37;6.38;;;5.88;;
73168;SDS011;61379;59.732;30.468;2022-09-01T09:06:10;6.32;;;5.78;;
73168;SDS011;61379;59.732;30.468;2022-09-01T09:08:52;6.13;;;5.72;;
73168;SDS011;61379;59.732;30.468;2022-09-01T09:11:32;6.47;;;5.57;;
73168;SDS011;61379;59.732;30.468;2022-09-01T09:14:02;6.93;;;6.35;;
73168;SDS011;61379;59.732;30.468;2022-09-01T09:16:33;6.65;;;6.15;;
73168;SDS011;61379;59.732;30.468;2022-09-01T09:19:01;6.78;;;6.28;;
73168;SDS011;61379;59.732;30.468;2022-09-01T09:21:31;7.85;;;6.55;;
73168;SDS011;61379;59.732;30.468;2022-09-01T09:23:59;6.65;;;6.15;;
73168;SDS011;61379;59.732;30.468;2022-09-01T09:26:30;6.32;;;5.93;;
73168;SDS011;61379;59.732;30.468;2022-09-01T09:28:57;7.15;;;6.60;;
73168;SDS011;61379;59.732;30.468;2022-09-01T09:31:25;7.25;;;6.75;;
73168;SDS011;61379;59.732;30.468;2022-09-01T09:33:52;7.50;;;6.93;;
73168;SDS011;61379;59.732;30.468;2022-09-01T09:36:20;7.88;;;7.35;;
73168;SDS011;61379;59.732;30.468;2022-09-01T09:38:51;7.85;;;7.25;;
73168;SDS011;61379;59.732;30.468;2022-09-01T09:41:28;7.78;;;7.18;;
73168;SDS011;61379;59.732;30.468;2022-09-01T09:43:58;7.43;;;6.88;;
73168;SDS011;61379;59.732;30.468;2022-09-01T09:46:26;7.53;;;7.03;;
73168;SDS011;61379;59.732;30.468;2022-09-01T09:49:07;6.38;;;5.97;;
73168;SDS011;61379;59.732;30.468;2022-09-01T09:51:34;6.65;;;6.25;;
73168;SDS011;61379;59.732;30.468;2022-09-01T09:54:17;6.47;;;6.07;;
73168;SDS011;61379;59.732;30.468;2022-09-01T09:56:44;8.88;;;8.10;;
73168;SDS011;61379;59.732;30.468;2022-09-01T09:59:20;7.35;;;6.75;;
73168;SDS011;61379;59.732;30.468;2022-09-01T10:01:48;6.70;;;6.18;;
73168;SDS011;61379;59.732;30.468;2022-09-01T10:04:30;6.65;;;6.15;;
73168;SDS011;61379;59.732;30.468;2022-09-01T10:06:57;6.90;;;6.50;;
73168;SDS011;61379;59.732;30.468;2022-09-01T10:09:32;7.30;;;6.57;;
73168;SDS011;61379;59.732;30.468;2022-09-01T10:11:59;7.45;;;6.72;;
73168;SDS011;61379;59.732;30.468;2022-09-01T10:14:29;7.07;;;6.57;;
73168;SDS011;61379;59.732;30.468;2022-09-01T10:16:59;7.60;;;7.10;;
73168;SDS011;61379;59.732;30.468;2022-09-01T10:19:28;7.25;;;6.85;;
73168;SDS011;61379;59.732;30.468;2022-09-01T10:21:55;7.22;;;6.82;;
73168;SDS011;61379;59.732;30.468;2022-09-01T10:24:23;7.55;;;7.03;;
73168;SDS011;61379;59.732;30.468;2022-09-01T10:26:51;6.97;;;6.47;;
73168;SDS011;61379;59.732;30.468;2022-09-01T10:29:21;7.25;;;6.57;;
73168;SDS011;61379;59.732;30.468;2022-09-01T10:31:51;6.00;;;5.60;;
73168;SDS011;61379;59.732;30.468;2022-09-01T10:34:18;7.07;;;6.38;;
73168;SDS011;61379;59.732;30.468;2022-09-01T10:36:46;7.10;;;6.57;;
73168;SDS011;61379;59.732;30.468;2022-09-01T10:39:14;6.65;;;6.15;;
73168;SDS011;61379;59.732;30.468;2022-09-01T10:41:49;6.65;;;6.22;;
73168;SDS011;61379;59.732;30.468;2022-09-01T10:44:20;7.05;;;6.50;;
73168;SDS011;61379;59.732;30.468;2022-09-01T10:46:47;7.38;;;6.78;;
73168;SDS011;61379;59.732;30.468;2022-09-01T10:52:03;7.45;;;6.80;;
73168;SDS011;61379;59.732;30.468;2022-09-01T10:54:48;8.10;;;7.35;;
73168;SDS011;61379;59.732;30.468;2022-09-01T10:57:27;6.80;;;6.40;;
73168;SDS011;61379;59.732;30.468;2022-09-01T11:00:05;7.20;;;6.80;;
73168;SDS011;61379;59.732;30.468;2022-09-01T11:02:40;6.88;;;6.40;;
73168;SDS011;61379;59.732;30.468;2022-09-01T11:05:12;6.88;;;6.47;;
73168;SDS011;61379;59.732;30.468;2022-09-01T11:07:40;6.63;;;6.13;;
73168;SDS011;61379;59.732;30.468;2022-09-01T11:10:16;6.45;;;5.95;;
73168;SDS011;61379;59.732;30.468;2022-09-01T11:12:50;7.13;;;6.72;;
73168;SDS011;61379;59.732;30.468;2022-09-01T11:15:32;6.82;;;6.43;;
73168;SDS011;61379;59.732;30.468;2022-09-01T11:17:59;6.70;;;6.15;;
73168;SDS011;61379;59.732;30.468;2022-09-01T11:20:27;7.53;;;6.93;;
73168;SDS011;61379;59.732;30.468;2022-09-01T11:23:00;7.28;;;6.85;;
73168;SDS011;61379;59.732;30.468;2022-09-01T11:30:48;7.03;;;6.63;;
73168;SDS011;61379;59.732;30.468;2022-09-01T11:33:25;6.95;;;6.55;;
73168;SDS011;61379;59.732;30.468;2022-09-01T11:35:57;6.53;;;6.10;;
73168;SDS011;61379;59.732;30.468;2022-09-01T11:38:25;7.07;;;6.68;;
73168;SDS011;61379;59.732;30.468;2022-09-01T11:40:55;6.90;;;6.43;;
73168;SDS011;61379;59.732;30.468;2022-09-01T11:43:22;6.15;;;5.75;;
73168;SDS011;61379;59.732;30.468;2022-09-01T11:45:51;7.53;;;6.93;;
73168;SDS011;61379;59.732;30.468;2022-09-01T11:48:22;7.63;;;6.18;;
73168;SDS011;61379;59.732;30.468;2022-09-01T11:50:55;6.88;;;6.38;;
73168;SDS011;61379;59.732;30.468;2022-09-01T11:53:22;6.82;;;6.18;;
73168;SDS011;61379;59.732;30.468;2022-09-01T11:55:51;6.88;;;6.47;;
73168;SDS011;61379;59.732;30.468;2022-09-01T11:58:28;6.95;;;6.55;;
73168;SDS011;61379;59.732;30.468;2022-09-01T12:01:10;6.32;;;5.80;;
73168;SDS011;61379;59.732;30.468;2022-09-01T12:03:37;6.43;;;5.85;;
73168;SDS011;61379;59.732;30.468;2022-09-01T12:06:06;5.75;;;5.35;;
73168;SDS011;61379;59.732;30.468;2022-09-01T12:08:35;6.15;;;5.75;;
73168;SDS011;61379;59.732;30.468;2022-09-01T12:11:04;7.22;;;6.43;;
73168;SDS011;61379;59.732;30.468;2022-09-01T12:13:32;6.95;;;6.55;;
73168;SDS011;61379;59.732;30.468;2022-09-01T12:15:59;7.10;;;6.45;;
73168;SDS011;61379;59.732;30.468;2022-09-01T12:18:27;6.95;;;6.55;;
73168;SDS011;61379;59.732;30.468;2022-09-01T12:20:55;7.25;;;6.75;;
73168;SDS011;61379;59.732;30.468;2022-09-01T12:23:24;6.85;;;6.35;;
73168;SDS011;61379;59.732;30.468;2022-09-01T12:25:51;7.13;;;6.63;;
73168;SDS011;61379;59.732;30.468;2022-09-01T12:28:22;6.40;;;5.93;;
73168;SDS011;61379;59.732;30.468;2022-09-01T12:30:50;6.47;;;5.65;;
73168;SDS011;61379;59.732;30.468;2022-09-01T12:33:18;6.43;;;6.03;;
73168;SDS011;61379;59.732;30.468;2022-09-01T12:35:45;6.72;;;6.18;;
73168;SDS011;61379;59.732;30.468;2022-09-01T12:38:20;7.20;;;6.70;;
73168;SDS011;61379;59.732;30.468;2022-09-01T12:40:47;5.80;;;5.30;;
73168;SDS011;61379;59.732;30.468;2022-09-01T12:43:27;7.30;;;6.60;;
73168;SDS011;61379;59.732;30.468;2022-09-01T12:45:53;6.57;;;5.97;;
73168;SDS011;61379;59.732;30.468;2022-09-01T12:48:24;8.02;;;6.72;;
73168;SDS011;61379;59.732;30.468;2022-09-01T12:50:53;6.68;;;6.05;;
73168;SDS011;61379;59.732;30.468;2022-09-01T12:53:21;6.28;;;5.78;;
73168;SDS011;61379;59.732;30.468;2022-09-01T12:55:59;7.40;;;6.93;;
73168;SDS011;61379;59.732;30.468;2022-09-01T12:58:27;7.43;;;6.85;;
73168;SDS011;61379;59.732;30.468;2022-09-01T13:00:57;7.72;;;7.22;;
73168;SDS011;61379;59.732;30.468;2022-09-01T13:03:25;7.43;;;6.93;;
73168;SDS011;61379;59.732;30.468;2022-09-01T13:05:54;7.50;;;7.00;;
73168;SDS011;61379;59.732;30.468;2022-09-01T13:08:22;7.25;;;6.63;;
73168;SDS011;61379;59.732;30.468;2022-09-01T13:10:51;7.13;;;6.55;;
73168;SDS011;61379;59.732;30.468;2022-09-01T13:13:19;6.80;;;6.38;;
73168;SDS011;61379;59.732;30.468;2022-09-01T13:15:49;6.65;;;6.25;;
73168;SDS011;61379;59.732;30.468;2022-09-01T13:18:16;6.43;;;6.03;;
73168;SDS011;61379;59.732;30.468;2022-09-01T13:20:43;6.63;;;6.13;;
73168;SDS011;61379;59.732;30.468;2022-09-01T13:23:10;6.88;;;6.47;;
73168;SDS011;61379;59.732;30.468;2022-09-01T13:25:37;6.40;;;6.00;;
73168;SDS011;61379;59.732;30.468;2022-09-01T13:28:04;8.38;;;6.57;;
73168;SDS011;61379;59.732;30.468;2022-09-01T13:30:32;6.47;;;5.97;;
73168;SDS011;61379;59.732;30.468;2022-09-01T13:33:00;6.68;;;6.18;;
73168;SDS011;61379;59.732;30.468;2022-09-01T13:35:27;7.35;;;6.75;;
73168;SDS011;61379;59.732;30.468;2022-09-01T13:37:54;6.72;;;6.22;;
73168;SDS011;61379;59.732;30.468;2022-09-01T13:40:20;6.97;;;6.32;;
73168;SDS011;61379;59.732;30.468;2022-09-01T13:42:48;6.85;;;6.35;;
73168;SDS011;61379;59.732;30.468;2022-09-01T13:45:16;6.93;;;6.45;;
73168;SDS011;61379;59.732;30.468;2022-09-01T13:47:43;7.40;;;6.90;;
73168;SDS011;61379;59.732;30.468;2022-09-01T13:50:13;7.10;;;6.45;;
73168;SDS011;61379;59.732;30.468;2022-09-01T13:52:42;6.95;;;6.55;;
73168;SDS011;61379;59.732;30.468;2022-09-01T13:55:11;7.45;;;6.85;;
73168;SDS011;61379;59.732;30.468;2022-09-01T13:57:38;6.63;;;6.13;;
73168;SDS011;61379;59.732;30.468;2022-09-01T14:00:06;6.70;;;6.10;;
73168;SDS011;61379;59.732;30.468;2022-09-01T14:02:34;6.47;;;5.97;;
73168;SDS011;61379;59.732;30.468;2022-09-01T14:05:02;7.10;;;6.32;;
73168;SDS011;61379;59.732;30.468;2022-09-01T14:07:30;7.03;;;6.53;;
73168;SDS011;61379;59.732;30.468;2022-09-01T14:09:57;6.60;;;6.15;;
73168;SDS011;61379;59.732;30.468;2022-09-01T14:12:24;6.43;;;5.82;;
73168;SDS011;61379;59.732;30.468;2022-09-01T14:14:51;6.40;;;5.97;;
73168;SDS011;61379;59.732;30.468;2022-09-01T14:17:18;8.00;;;7.35;;
73168;SDS011;61379;59.732;30.468;2022-09-01T14:19:47;7.00;;;6.43;;
73168;SDS011;61379;59.732;30.468;2022-09-01T14:22:14;6.78;;;6.18;;
73168;SDS011;61379;59.732;30.468;2022-09-01T14:24:42;6.53;;;6.03;;
73168;SDS011;61379;59.732;30.468;2022-09-01T14:27:09;7.40;;;6.95;;
73168;SDS011;61379;59.732;30.468;2022-09-01T14:29:37;6.32;;;5.93;;
73168;SDS011;61379;59.732;30.468;2022-09-01T14:32:03;6.65;;;6.25;;
73168;SDS011;61379;59.732;30.468;2022-09-01T14:34:32;6.57;;;6.07;;
73168;SDS011;61379;59.732;30.468;2022-09-01T14:36:58;7.38;;;6.65;;
73168;SDS011;61379;59.732;30.468;2022-09-01T14:39:25;6.13;;;5.63;;
73168;SDS011;61379;59.732;30.468;2022-09-01T14:41:54;6.90;;;6.40;;
73168;SDS011;61379;59.732;30.468;2022-09-01T14:44:21;6.05;;;5.65;;
73168;SDS011;61379;59.732;30.468;2022-09-01T14:46:47;6.13;;;5.72;;
73168;SDS011;61379;59.732;30.468;2022-09-01T14:49:14;5.95;;;5.60;;
73168;SDS011;61379;59.732;30.468;2022-09-01T14:51:42;5.70;;;5.30;;
73168;SDS011;61379;59.732;30.468;2022-09-01T14:54:09;6.80;;;6.20;;
73168;SDS011;61379;59.732;30.468;2022-09-01T14:56:35;5.82;;;5.43;;